createdAt,value
2023-02-17T00:01:20.537Z,28.50
2023-02-17T00:06:25.289Z,30.40
2023-02-17T00:11:28.886Z,29.75
2023-02-17T00:16:31.741Z,29.27
2023-02-17T00:21:34.450Z,28.00
2023-02-17T00:26:37.166Z,17.00
2023-02-17T00:31:40.419Z,27.38
2023-02-17T00:36:43.168Z,33.25
2023-02-17T00:41:45.925Z,26.02
2023-02-17T00:46:48.925Z,17.30
2023-02-17T00:51:52.000Z,27.70
2023-02-17T00:56:54.862Z,24.50
2023-02-17T01:01:59.140Z,31.48
2023-02-17T01:07:01.942Z,28.20
2023-02-17T01:12:04.673Z,23.48
2023-02-17T01:17:07.721Z,24.38
2023-02-17T01:22:10.715Z,16.55
2023-02-17T01:27:13.376Z,21.15
2023-02-17T01:32:16.077Z,16.65
2023-02-17T01:37:18.730Z,22.75
2023-02-17T01:42:21.589Z,17.90
2023-02-17T01:47:24.514Z,22.17
2023-02-17T01:52:27.448Z,23.23
2023-02-17T01:57:33.430Z,21.75
2023-02-17T02:02:36.546Z,22.70
2023-02-17T02:07:41.453Z,24.42
2023-02-17T02:12:44.814Z,21.33
2023-02-17T02:17:56.438Z,24.27
2023-02-17T02:23:46.801Z,28.30
2023-02-17T02:29:10.698Z,28.30
2023-02-17T02:34:21.797Z,21.70
2023-02-17T02:39:27.558Z,24.80
2023-02-17T02:44:30.606Z,21.42
2023-02-17T02:49:36.123Z,26.40
2023-02-17T02:55:02.182Z,23.38
2023-02-17T03:00:57.058Z,27.00
2023-02-17T03:06:31.968Z,24.05
2023-02-17T03:11:35.132Z,20.45
2023-02-17T03:16:40.629Z,26.98
2023-02-17T03:21:46.278Z,23.05
2023-02-17T03:26:49.011Z,16.77
2023-02-17T03:31:52.733Z,22.60
2023-02-17T03:36:55.618Z,17.40
2023-02-17T03:41:58.254Z,19.23
2023-02-17T03:47:00.949Z,14.07
2023-02-17T03:52:03.702Z,17.10
2023-02-17T03:57:06.488Z,19.52
2023-02-17T04:02:09.199Z,17.85
2023-02-17T04:07:11.913Z,14.07
2023-02-17T04:12:14.566Z,17.57
2023-02-17T04:17:17.351Z,14.50
2023-02-17T04:22:19.972Z,16.73
2023-02-17T04:27:22.725Z,16.13
2023-02-17T04:32:25.684Z,16.48
2023-02-17T04:37:28.317Z,14.27
2023-02-17T04:42:30.988Z,9.85
2023-02-17T04:47:33.918Z,16.00
2023-02-17T04:52:36.679Z,15.70
2023-02-17T04:57:39.735Z,19.73
2023-02-17T05:02:42.392Z,15.20
2023-02-17T05:07:48.930Z,17.30
2023-02-17T05:12:51.730Z,19.45
2023-02-17T05:17:54.469Z,15.15
2023-02-17T05:22:57.340Z,16.15
2023-02-17T05:28:00.140Z,14.07
2023-02-17T05:33:02.849Z,14.55
2023-02-17T05:38:05.619Z,12.95
2023-02-17T05:43:08.255Z,16.13
2023-02-17T05:48:10.951Z,13.48
2023-02-17T05:53:13.794Z,12.30
2023-02-17T05:58:16.613Z,13.02
2023-02-17T06:03:19.408Z,13.80
2023-02-17T06:08:22.152Z,10.90
2023-02-17T06:13:25.059Z,10.25
2023-02-17T06:18:27.858Z,13.43
2023-02-17T06:23:30.607Z,10.75
2023-02-17T06:28:35.079Z,14.65
2023-02-17T06:33:37.918Z,13.15
2023-02-17T06:38:40.668Z,11.13
2023-02-17T06:43:43.339Z,10.90
2023-02-17T06:48:46.083Z,11.25
2023-02-17T06:53:48.954Z,16.40
2023-02-17T06:58:51.878Z,11.10
2023-02-17T07:03:55.297Z,10.20
2023-02-17T07:08:58.118Z,9.83
2023-02-17T07:14:01.083Z,11.85
2023-02-17T07:19:03.806Z,11.27
2023-02-17T07:24:06.640Z,10.02
2023-02-17T07:29:09.460Z,10.48
2023-02-17T07:34:12.063Z,9.05
2023-02-17T07:39:14.937Z,8.98
2023-02-17T07:44:17.594Z,10.02
2023-02-17T07:49:20.466Z,10.15
2023-02-17T07:54:23.309Z,12.95
2023-02-17T07:59:26.033Z,10.18
2023-02-17T08:04:28.806Z,7.47
2023-02-17T08:09:50.424Z,9.13
2023-02-17T08:14:53.374Z,10.52
2023-02-17T08:19:56.538Z,10.25
2023-02-17T08:24:59.326Z,8.65
2023-02-17T08:30:02.160Z,9.43
2023-02-17T08:35:07.071Z,8.93
2023-02-17T08:40:10.227Z,10.00
2023-02-17T08:45:14.872Z,9.55
2023-02-17T08:50:20.332Z,9.98
2023-02-17T08:55:23.971Z,10.38
2023-02-17T09:00:27.115Z,8.00
2023-02-17T09:05:29.883Z,8.80
2023-02-17T09:10:32.887Z,11.18
2023-02-17T09:20:39.996Z,11.68
2023-02-17T09:25:42.903Z,7.53
2023-02-17T09:30:45.901Z,11.95
2023-02-17T09:35:49.712Z,9.80
2023-02-17T09:40:52.489Z,10.50
2023-02-17T09:46:00.709Z,10.38
2023-02-17T09:51:08.080Z,9.73
2023-02-17T09:56:15.257Z,10.88
2023-02-17T10:01:24.710Z,9.45
2023-02-17T10:06:29.168Z,8.02
2023-02-17T10:16:53.857Z,12.45
2023-02-17T10:22:03.523Z,13.80
2023-02-17T10:27:38.428Z,11.82
2023-02-17T10:33:04.960Z,11.02
2023-02-17T10:38:27.966Z,13.07
2023-02-17T10:43:32.535Z,12.20
2023-02-17T10:48:39.186Z,11.77
2023-02-17T10:53:42.449Z,13.38
2023-02-17T10:58:56.394Z,13.60
2023-02-17T11:04:02.606Z,15.10
2023-02-17T11:09:12.432Z,11.02
2023-02-17T11:14:21.428Z,13.05
2023-02-17T11:19:28.861Z,11.98
2023-02-17T11:24:33.865Z,12.93
2023-02-17T11:29:36.832Z,14.68
2023-02-17T11:34:42.839Z,15.48
2023-02-17T11:39:51.171Z,11.18
2023-02-17T11:44:57.197Z,9.98
2023-02-17T11:50:06.642Z,12.75
2023-02-17T11:55:17.840Z,12.98
2023-02-17T12:00:23.660Z,13.48
2023-02-17T12:06:00.493Z,16.75
2023-02-17T12:11:37.903Z,12.20
2023-02-17T12:16:52.597Z,12.05
2023-02-17T12:22:23.259Z,12.82
2023-02-17T12:27:37.914Z,13.43
2023-02-17T12:32:58.966Z,10.80
2023-02-17T12:38:08.400Z,14.52
2023-02-17T12:43:33.475Z,11.98
2023-02-17T12:48:40.632Z,13.25
2023-02-17T12:53:54.845Z,9.32
2023-02-17T13:04:03.120Z,10.20
2023-02-17T13:09:13.608Z,9.00
2023-02-17T13:14:42.662Z,13.07
2023-02-17T13:19:45.343Z,10.68
2023-02-17T13:24:55.630Z,9.48
2023-02-17T13:30:05.856Z,10.45
2023-02-17T13:35:14.428Z,11.07
2023-02-17T13:40:17.105Z,8.30
2023-02-17T13:45:40.891Z,10.63
2023-02-17T13:50:54.819Z,7.13
2023-02-17T13:56:01.179Z,8.75
2023-02-17T14:01:05.454Z,12.48
2023-02-17T14:11:14.312Z,11.07
2023-02-17T14:16:46.626Z,9.75
2023-02-17T14:22:05.930Z,8.63
2023-02-17T14:27:10.123Z,6.90
2023-02-17T14:32:31.536Z,7.32
2023-02-17T14:37:37.179Z,7.10
2023-02-17T14:42:40.001Z,8.50
2023-02-17T14:47:43.491Z,7.80
2023-02-17T14:52:48.232Z,7.35
2023-02-17T14:57:53.859Z,7.88
2023-02-17T15:02:56.874Z,6.85
2023-02-17T15:08:01.732Z,9.15
2023-02-17T15:13:04.480Z,9.05
2023-02-17T15:18:07.258Z,8.75
2023-02-17T15:23:18.948Z,7.85
2023-02-17T15:28:22.649Z,10.00
2023-02-17T15:33:25.596Z,11.03
2023-02-17T15:38:28.351Z,8.95
2023-02-17T15:48:43.918Z,9.73
2023-02-17T15:53:48.020Z,7.70
2023-02-17T15:58:51.193Z,13.70
2023-02-17T16:03:54.315Z,9.77
2023-02-17T16:08:59.128Z,7.85
2023-02-17T16:14:02.198Z,9.50
2023-02-17T16:19:04.921Z,13.48
2023-02-17T16:24:07.813Z,8.88
2023-02-17T16:29:21.665Z,8.55
2023-02-17T16:34:26.101Z,6.90
2023-02-17T16:39:29.366Z,13.95
2023-02-17T16:44:32.187Z,8.97
2023-02-17T16:49:38.057Z,10.60
2023-02-17T16:54:40.724Z,12.55
2023-02-17T16:59:43.390Z,12.55
2023-02-17T17:04:46.261Z,10.85
2023-02-17T17:10:12.505Z,12.90
2023-02-17T17:15:11.938Z,13.55
2023-02-17T17:20:17.640Z,12.45
2023-02-17T17:25:20.390Z,15.63
2023-02-17T17:30:26.720Z,16.10
2023-02-17T17:35:30.193Z,13.40
2023-02-17T17:40:48.848Z,17.23
2023-02-17T17:45:52.422Z,16.23
2023-02-17T17:50:55.237Z,14.30
2023-02-17T17:55:57.993Z,16.05
2023-02-17T18:01:01.771Z,11.73
2023-02-17T18:06:05.750Z,17.08
2023-02-17T18:16:11.854Z,15.45
2023-02-17T18:21:14.596Z,15.73
2023-02-17T18:26:18.882Z,16.60
2023-02-17T18:31:21.899Z,17.17
2023-02-17T18:36:27.083Z,16.57
2023-02-17T18:41:31.456Z,19.75
2023-02-17T18:46:34.358Z,20.73
2023-02-17T18:51:37.572Z,8.77
2023-02-17T18:56:40.344Z,13.43
2023-02-17T19:01:43.640Z,18.70
2023-02-17T19:06:46.439Z,19.15
2023-02-17T19:11:49.114Z,13.82
2023-02-17T19:16:51.780Z,16.42
2023-02-17T19:21:54.898Z,11.25
2023-02-17T19:26:57.582Z,18.67
2023-02-17T19:32:01.305Z,18.02
2023-02-17T19:37:04.281Z,15.43
2023-02-17T19:42:08.426Z,9.50
2023-02-17T19:47:11.118Z,18.75
2023-02-17T19:52:13.835Z,13.50
2023-02-17T19:57:19.592Z,11.85
2023-02-17T20:02:22.278Z,17.77
2023-02-17T20:07:25.250Z,17.50
2023-02-17T20:12:27.970Z,17.33
2023-02-17T20:17:30.652Z,16.07
2023-02-17T20:22:33.371Z,15.25
2023-02-17T20:27:36.101Z,16.67
2023-02-17T20:32:38.841Z,15.67
2023-02-17T20:37:41.679Z,19.33
2023-02-17T20:42:44.316Z,17.03
2023-02-17T20:47:47.098Z,11.60
2023-02-17T20:52:50.045Z,18.67
2023-02-17T20:57:53.075Z,17.63
2023-02-17T21:02:55.816Z,15.60
2023-02-17T21:07:59.314Z,18.60
2023-02-17T21:13:02.222Z,14.10
2023-02-17T21:18:06.082Z,18.17
2023-02-17T21:23:08.742Z,10.82
2023-02-17T21:28:11.388Z,7.67
2023-02-17T21:33:14.083Z,17.60
2023-02-17T21:38:17.218Z,17.27
2023-02-17T21:43:38.671Z,18.60
2023-02-17T21:48:41.405Z,22.52
2023-02-17T21:53:44.542Z,19.90
2023-02-17T21:58:52.656Z,13.90
2023-02-17T22:03:56.010Z,15.82
2023-02-17T22:14:04.074Z,15.27
2023-02-17T22:19:08.555Z,19.17
2023-02-17T22:24:11.458Z,16.20
2023-02-17T22:29:14.098Z,17.33
2023-02-17T22:34:16.933Z,13.13
2023-02-17T22:39:19.688Z,17.77
2023-02-17T22:44:22.770Z,12.45
2023-02-17T22:49:25.424Z,16.05
2023-02-17T22:54:28.122Z,15.25
2023-02-17T22:59:31.087Z,17.50
2023-02-17T23:04:33.831Z,11.55
2023-02-17T23:09:36.742Z,18.15
2023-02-17T23:14:40.786Z,18.58
2023-02-17T23:19:43.589Z,17.42
2023-02-17T23:24:47.785Z,16.98
2023-02-17T23:29:50.492Z,17.95
2023-02-17T23:34:53.156Z,18.10
2023-02-17T23:39:55.888Z,18.15
2023-02-17T23:44:58.578Z,10.98
2023-02-17T23:50:01.578Z,16.33
2023-02-17T23:55:06.447Z,16.52
